createdAt,value
2022-11-04T00:01:58.465Z,62.73
2022-11-04T00:04:28.380Z,62.43
2022-11-04T00:06:56.628Z,62.58
2022-11-04T00:09:28.814Z,62.51
2022-11-04T00:12:14.577Z,62.32
2022-11-04T00:14:41.498Z,62.23
2022-11-04T00:17:24.354Z,62.25
2022-11-04T00:20:13.548Z,62.21
2022-11-04T00:23:00.956Z,62.42
2022-11-04T00:25:46.493Z,62.56
2022-11-04T00:28:37.124Z,62.58
2022-11-04T00:31:25.440Z,62.42
2022-11-04T00:33:54.586Z,62.44
2022-11-04T00:36:23.069Z,62.60
2022-11-04T00:38:49.657Z,62.16
2022-11-04T00:41:29.838Z,62.15
2022-11-04T00:44:01.915Z,62.81
2022-11-04T00:46:30.224Z,62.32
2022-11-04T00:48:57.297Z,62.54
2022-11-04T00:51:24.050Z,62.53
2022-11-04T00:53:51.449Z,62.23
2022-11-04T00:56:18.494Z,62.15
2022-11-04T00:58:45.566Z,62.46
2022-11-04T01:01:17.773Z,62.47
2022-11-04T01:03:49.113Z,62.34
2022-11-04T01:06:16.634Z,62.29
2022-11-04T01:08:43.583Z,62.34
2022-11-04T01:11:11.037Z,62.56
2022-11-04T01:13:38.867Z,62.50
2022-11-04T01:16:11.652Z,62.29
2022-11-04T01:18:43.916Z,62.25
2022-11-04T01:21:13.284Z,62.37
2022-11-04T01:23:41.618Z,62.30
2022-11-04T01:26:10.131Z,62.41
2022-11-04T01:28:36.951Z,62.35
2022-11-04T01:31:11.235Z,62.51
2022-11-04T01:33:38.587Z,62.51
2022-11-04T01:36:07.435Z,62.29
2022-11-04T01:38:34.784Z,62.64
2022-11-04T01:41:01.764Z,62.71
2022-11-04T01:43:50.355Z,62.65
2022-11-04T01:46:27.715Z,62.65
2022-11-04T01:48:59.655Z,62.63
2022-11-04T01:51:28.629Z,62.63
2022-11-04T01:53:56.722Z,62.72
2022-11-04T01:56:23.968Z,62.62
2022-11-04T01:58:56.752Z,62.54
2022-11-04T02:01:23.847Z,62.33
2022-11-04T02:04:18.384Z,62.43
2022-11-04T02:06:49.731Z,62.34
2022-11-04T02:09:24.246Z,62.56
2022-11-04T02:12:09.674Z,62.60
2022-11-04T02:14:37.356Z,62.85
2022-11-04T02:17:18.806Z,62.78
2022-11-04T02:19:54.325Z,62.71
2022-11-04T02:22:45.222Z,62.37
2022-11-04T02:25:45.816Z,62.61
2022-11-04T02:28:21.420Z,62.59
2022-11-04T02:31:01.413Z,62.58
2022-11-04T02:33:50.409Z,62.91
2022-11-04T02:36:32.910Z,62.76
2022-11-04T02:39:18.276Z,62.81
2022-11-04T02:41:55.869Z,62.78
2022-11-04T02:44:38.874Z,62.51
2022-11-04T02:47:07.853Z,62.55
2022-11-04T02:50:00.783Z,62.88
2022-11-04T02:52:47.231Z,62.74
2022-11-04T02:55:23.587Z,62.80
2022-11-04T02:57:54.806Z,62.67
2022-11-04T03:00:21.637Z,62.73
2022-11-04T03:02:54.101Z,62.60
2022-11-04T03:05:26.745Z,62.73
2022-11-04T03:07:57.482Z,62.56
2022-11-04T03:10:48.602Z,63.04
2022-11-04T03:13:19.422Z,62.74
2022-11-04T03:15:53.253Z,62.94
2022-11-04T03:18:36.749Z,62.87
2022-11-04T03:21:07.087Z,62.57
2022-11-04T03:23:34.813Z,62.74
2022-11-04T03:26:13.069Z,62.65
2022-11-04T03:28:50.890Z,62.86
2022-11-04T03:31:27.508Z,62.99
2022-11-04T03:33:56.068Z,62.73
2022-11-04T03:36:24.213Z,62.99
2022-11-04T03:38:52.715Z,62.97
2022-11-04T03:41:49.413Z,63.12
2022-11-04T03:44:16.244Z,63.33
2022-11-04T03:46:43.040Z,62.75
2022-11-04T03:49:11.655Z,63.11
2022-11-04T03:51:38.282Z,62.91
2022-11-04T03:54:06.456Z,62.93
2022-11-04T03:56:51.672Z,63.05
2022-11-04T03:59:46.100Z,63.15
2022-11-04T04:02:22.692Z,62.95
2022-11-04T04:05:18.922Z,63.30
2022-11-04T04:08:10.336Z,63.09
2022-11-04T04:10:45.655Z,63.19
2022-11-04T04:13:37.467Z,63.21
2022-11-04T04:16:11.477Z,63.32
2022-11-04T04:18:44.288Z,63.34
2022-11-04T04:21:16.430Z,62.73
2022-11-04T04:24:04.773Z,63.26
2022-11-04T04:26:52.789Z,63.22
2022-11-04T04:29:20.815Z,63.40
2022-11-04T04:31:51.464Z,63.62
2022-11-04T04:34:30.112Z,63.56
2022-11-04T04:37:05.511Z,63.21
2022-11-04T04:40:11.205Z,63.56
2022-11-04T04:42:56.758Z,63.53
2022-11-04T04:45:26.845Z,63.21
2022-11-04T04:47:53.630Z,63.39
2022-11-04T04:50:21.715Z,63.66
2022-11-04T04:52:52.068Z,63.40
2022-11-04T04:55:20.627Z,63.61
2022-11-04T04:57:47.392Z,63.32
2022-11-04T05:00:19.990Z,63.38
2022-11-04T05:02:46.816Z,63.45
2022-11-04T05:05:16.899Z,64.00
2022-11-04T05:07:44.202Z,65.78
2022-11-04T05:10:12.587Z,64.86
2022-11-04T05:12:59.096Z,64.50
2022-11-04T05:15:26.822Z,64.09
2022-11-04T05:17:57.956Z,64.21
2022-11-04T05:20:25.504Z,63.93
2022-11-04T05:22:52.163Z,64.04
2022-11-04T05:25:18.701Z,64.08
2022-11-04T05:27:45.295Z,64.01
2022-11-04T05:30:12.391Z,64.05
2022-11-04T05:32:39.179Z,63.73
2022-11-04T05:35:06.263Z,64.00
2022-11-04T05:37:32.878Z,64.12
2022-11-04T05:39:59.645Z,64.22
2022-11-04T05:42:27.032Z,64.40
2022-11-04T05:44:53.883Z,64.17
2022-11-04T05:47:20.764Z,64.21
2022-11-04T05:49:47.487Z,64.27
2022-11-04T05:52:14.184Z,63.89
2022-11-04T05:54:40.778Z,64.13
2022-11-04T05:57:07.509Z,64.18
2022-11-04T05:59:34.106Z,64.07
2022-11-04T06:02:01.105Z,64.19
2022-11-04T06:04:28.041Z,64.35
2022-11-04T06:06:54.801Z,64.24
2022-11-04T06:09:38.702Z,64.34
2022-11-04T06:12:17.129Z,64.00
2022-11-04T06:14:44.418Z,64.00
2022-11-04T06:17:22.090Z,64.09
2022-11-04T06:19:48.926Z,63.82
2022-11-04T06:22:17.894Z,63.99
2022-11-04T06:24:44.616Z,63.62
2022-11-04T06:27:12.305Z,63.93
2022-11-04T06:29:42.146Z,63.92
2022-11-04T06:32:10.703Z,63.72
2022-11-04T06:34:37.675Z,63.97
2022-11-04T06:37:04.915Z,63.63
2022-11-04T06:39:31.733Z,63.92
2022-11-04T06:41:59.713Z,63.91
2022-11-04T06:44:29.158Z,63.74
2022-11-04T06:46:55.963Z,63.92
2022-11-04T06:49:23.215Z,64.11
2022-11-04T06:51:50.578Z,63.92
2022-11-04T06:54:17.928Z,63.97
2022-11-04T06:56:45.285Z,63.84
2022-11-04T06:59:16.521Z,63.99
2022-11-04T07:01:43.659Z,63.67
2022-11-04T07:04:10.283Z,63.96
2022-11-04T07:06:39.714Z,64.05
2022-11-04T07:09:11.414Z,64.07
2022-11-04T07:11:38.518Z,64.27
2022-11-04T07:14:05.207Z,63.78
2022-11-04T07:16:31.789Z,63.65
2022-11-04T07:18:58.317Z,63.97
2022-11-04T07:21:25.117Z,64.34
2022-11-04T07:23:52.634Z,64.21
2022-11-04T07:26:19.489Z,64.06
2022-11-04T07:28:46.742Z,64.00
2022-11-04T07:31:14.798Z,64.10
2022-11-04T07:33:41.672Z,64.02
2022-11-04T07:36:11.730Z,63.99
2022-11-04T07:38:38.491Z,64.31
2022-11-04T07:41:05.262Z,64.07
2022-11-04T07:43:31.943Z,64.45
2022-11-04T07:46:03.919Z,64.01
2022-11-04T07:48:30.742Z,64.23
2022-11-04T07:50:59.766Z,64.15
2022-11-04T07:53:30.547Z,64.12
2022-11-04T07:55:58.213Z,63.96
2022-11-04T07:58:26.395Z,63.87
2022-11-04T08:01:02.924Z,63.70
2022-11-04T08:03:29.695Z,63.88
2022-11-04T08:05:58.374Z,64.18
2022-11-04T08:08:25.310Z,64.02
2022-11-04T08:11:03.163Z,64.61
2022-11-04T08:13:31.713Z,64.83
2022-11-04T08:16:03.308Z,64.72
2022-11-04T08:18:32.154Z,64.47
2022-11-04T08:20:59.670Z,64.56
2022-11-04T08:23:29.629Z,64.10
2022-11-04T08:25:57.139Z,63.79
2022-11-04T08:28:24.678Z,63.83
2022-11-04T08:30:58.335Z,63.74
2022-11-04T08:33:26.844Z,63.56
2022-11-04T08:35:59.001Z,63.40
2022-11-04T08:38:25.651Z,63.19
2022-11-04T08:40:58.597Z,63.03
2022-11-04T08:43:26.776Z,62.99
2022-11-04T08:45:53.601Z,62.75
2022-11-04T08:48:20.822Z,62.49
2022-11-04T08:50:52.390Z,62.64
2022-11-04T08:53:19.059Z,62.48
2022-11-04T08:55:45.948Z,62.44
2022-11-04T08:58:13.187Z,62.23
2022-11-04T09:00:40.114Z,62.11
2022-11-04T09:03:07.005Z,62.02
2022-11-04T09:05:36.554Z,61.97
2022-11-04T09:08:04.974Z,61.87
2022-11-04T09:10:31.576Z,61.71
2022-11-04T09:12:58.131Z,61.72
2022-11-04T09:15:24.746Z,61.64
2022-11-04T09:17:51.493Z,61.48
2022-11-04T09:20:18.266Z,61.43
2022-11-04T09:22:46.081Z,61.38
2022-11-04T09:25:13.002Z,61.48
2022-11-04T09:27:39.797Z,61.30
2022-11-04T09:30:06.968Z,61.40
2022-11-04T09:32:33.715Z,61.06
2022-11-04T09:35:00.552Z,61.06
2022-11-04T09:37:27.344Z,60.93
2022-11-04T09:39:54.150Z,61.03
2022-11-04T09:42:38.066Z,60.84
2022-11-04T09:45:26.795Z,60.68
2022-11-04T09:47:59.390Z,60.77
2022-11-04T09:50:31.482Z,60.79
2022-11-04T09:53:30.719Z,60.58
2022-11-04T09:55:59.634Z,60.78
2022-11-04T09:58:29.081Z,60.59
2022-11-04T10:01:09.942Z,60.56
2022-11-04T10:03:53.151Z,60.51
2022-11-04T10:06:56.922Z,60.39
2022-11-04T10:09:55.811Z,60.29
2022-11-04T10:12:57.098Z,60.23
2022-11-04T10:15:51.952Z,60.45
2022-11-04T10:18:27.805Z,60.23
2022-11-04T10:21:10.485Z,60.10
2022-11-04T10:24:05.484Z,60.12
2022-11-04T10:26:57.460Z,60.34
2022-11-04T10:29:37.614Z,60.07
2022-11-04T10:32:12.607Z,60.07
2022-11-04T10:34:57.308Z,60.16
2022-11-04T10:37:26.044Z,59.87
2022-11-04T10:40:01.339Z,60.12
2022-11-04T10:42:28.271Z,60.07
2022-11-04T10:44:55.110Z,59.85
2022-11-04T10:47:31.615Z,59.91
2022-11-04T10:50:32.386Z,59.66
2022-11-04T10:53:18.520Z,59.80
2022-11-04T10:55:55.622Z,60.08
2022-11-04T10:58:27.070Z,59.79
2022-11-04T11:00:57.729Z,59.65
2022-11-04T11:03:33.169Z,59.63
2022-11-04T11:06:28.519Z,59.58
2022-11-04T11:08:58.693Z,59.44
2022-11-04T11:11:38.628Z,59.49
2022-11-04T11:14:05.279Z,59.60
2022-11-04T11:16:32.062Z,60.07
2022-11-04T11:19:17.641Z,59.71
2022-11-04T11:21:48.822Z,59.60
2022-11-04T11:24:20.576Z,59.52
2022-11-04T11:26:49.932Z,59.46
2022-11-04T11:29:22.091Z,59.46
2022-11-04T11:31:49.537Z,59.33
2022-11-04T11:34:23.048Z,59.16
2022-11-04T11:36:50.440Z,59.14
2022-11-04T11:39:22.909Z,59.36
2022-11-04T11:41:54.293Z,59.53
2022-11-04T11:44:44.301Z,59.46
2022-11-04T11:47:36.905Z,59.27
2022-11-04T11:50:15.951Z,59.48
2022-11-04T11:52:44.834Z,59.32
2022-11-04T11:55:38.962Z,59.34
2022-11-04T12:01:42.589Z,59.32
2022-11-04T12:10:54.858Z,59.21
2022-11-04T12:13:37.133Z,59.10
2022-11-04T12:16:31.224Z,59.15
2022-11-04T12:19:15.875Z,59.02
2022-11-04T12:21:57.289Z,58.99
2022-11-04T12:24:23.896Z,59.23
2022-11-04T12:27:03.673Z,59.15
2022-11-04T12:29:45.448Z,58.96
2022-11-04T12:32:36.234Z,58.96
2022-11-04T12:35:44.178Z,59.11
2022-11-04T12:38:19.762Z,58.92
2022-11-04T12:43:53.876Z,58.93
2022-11-04T12:46:37.577Z,58.62
2022-11-04T12:49:24.199Z,58.84
2022-11-04T12:52:11.217Z,58.80
2022-11-04T12:55:14.146Z,58.60
2022-11-04T12:58:25.816Z,58.87
2022-11-04T13:01:03.458Z,58.90
2022-11-04T13:03:48.964Z,58.70
2022-11-04T13:06:31.177Z,58.74
2022-11-04T13:09:03.110Z,58.68
2022-11-04T13:11:38.028Z,58.51
2022-11-04T13:14:19.006Z,58.63
2022-11-04T13:16:49.992Z,58.73
2022-11-04T13:19:25.443Z,58.54
2022-11-04T13:21:54.086Z,58.40
2022-11-04T13:24:30.527Z,58.71
2022-11-04T13:27:04.060Z,58.75
2022-11-04T13:29:34.510Z,58.65
2022-11-04T13:32:32.124Z,58.66
2022-11-04T13:35:01.281Z,58.48
2022-11-04T13:37:37.231Z,58.54
2022-11-04T13:40:15.311Z,58.50
2022-11-04T13:43:30.495Z,58.72
2022-11-04T13:45:57.947Z,58.31
2022-11-04T13:48:31.572Z,58.35
2022-11-04T13:51:05.298Z,58.65
2022-11-04T13:53:57.935Z,58.41
2022-11-04T13:56:33.371Z,58.48
2022-11-04T13:59:23.741Z,58.44
2022-11-04T14:02:19.014Z,58.62
2022-11-04T14:04:46.958Z,58.54
2022-11-04T14:07:17.912Z,58.42
2022-11-04T14:09:44.639Z,58.46
2022-11-04T14:12:14.020Z,58.48
2022-11-04T14:14:41.879Z,58.13
2022-11-04T14:17:46.737Z,58.23
2022-11-04T14:20:29.965Z,58.42
2022-11-04T14:22:58.667Z,58.16
2022-11-04T14:26:00.411Z,58.36
2022-11-04T14:28:30.019Z,58.13
2022-11-04T14:31:00.521Z,58.37
2022-11-04T14:33:35.249Z,58.40
2022-11-04T14:36:25.274Z,58.10
2022-11-04T14:39:02.469Z,58.34
2022-11-04T14:41:28.938Z,58.23
2022-11-04T14:44:00.425Z,58.30
2022-11-04T14:46:31.741Z,58.29
2022-11-04T14:49:02.134Z,58.44
2022-11-04T14:51:31.585Z,58.11
2022-11-04T14:54:11.372Z,58.31
2022-11-04T14:56:38.005Z,57.84
2022-11-04T14:59:06.494Z,58.18
2022-11-04T15:01:38.105Z,58.41
2022-11-04T15:04:13.854Z,58.34
2022-11-04T15:06:54.380Z,58.28
2022-11-04T15:09:28.330Z,58.21
2022-11-04T15:12:29.531Z,58.30
2022-11-04T15:14:57.846Z,58.25
2022-11-04T15:17:29.385Z,58.34
2022-11-04T15:20:00.359Z,58.18
2022-11-04T15:22:29.455Z,58.20
2022-11-04T15:25:01.335Z,58.17
2022-11-04T15:27:29.834Z,58.04
2022-11-04T15:30:02.700Z,58.29
2022-11-04T15:32:29.572Z,58.07
2022-11-04T15:34:57.435Z,58.17
2022-11-04T15:37:26.532Z,58.31
2022-11-04T15:39:56.624Z,58.22
2022-11-04T15:42:37.033Z,58.12
2022-11-04T15:45:21.906Z,58.23
2022-11-04T15:47:49.380Z,58.22
2022-11-04T15:50:22.700Z,58.30
2022-11-04T15:52:55.784Z,58.27
2022-11-04T15:55:27.514Z,58.25
2022-11-04T15:57:56.010Z,58.32
2022-11-04T16:00:28.329Z,58.17
2022-11-04T16:03:00.187Z,58.34
2022-11-04T16:05:29.732Z,58.21
2022-11-04T16:08:19.091Z,58.32
2022-11-04T16:10:45.777Z,58.31
2022-11-04T16:13:18.314Z,58.27
2022-11-04T16:15:49.130Z,57.96
2022-11-04T16:18:25.011Z,57.99
2022-11-04T16:20:54.125Z,58.24
2022-11-04T16:23:26.103Z,58.11
2022-11-04T16:26:04.187Z,58.08
2022-11-04T16:28:34.830Z,57.95
2022-11-04T16:31:21.794Z,58.06
2022-11-04T16:33:49.609Z,58.06
2022-11-04T16:36:28.535Z,57.98
2022-11-04T16:39:00.205Z,58.29
2022-11-04T16:41:31.255Z,58.05
2022-11-04T16:43:58.285Z,57.91
2022-11-04T16:46:25.405Z,58.32
2022-11-04T16:48:51.933Z,58.11
2022-11-04T16:51:32.917Z,58.16
2022-11-04T16:53:59.588Z,57.69
2022-11-04T16:56:27.100Z,57.71
2022-11-04T16:58:53.903Z,58.15
2022-11-04T17:01:21.444Z,58.07
2022-11-04T17:03:48.323Z,57.96
2022-11-04T17:06:16.285Z,58.05
2022-11-04T17:08:43.519Z,58.41
2022-11-04T17:11:11.012Z,58.96
2022-11-04T17:13:38.600Z,58.33
2022-11-04T17:16:07.024Z,58.37
2022-11-04T17:18:34.964Z,58.04
2022-11-04T17:21:06.930Z,58.22
2022-11-04T17:23:34.288Z,58.31
2022-11-04T17:26:01.229Z,58.09
2022-11-04T17:28:27.816Z,58.15
2022-11-04T17:30:54.559Z,58.15
2022-11-04T17:33:21.476Z,58.30
2022-11-04T17:35:50.023Z,57.93
2022-11-04T17:38:18.444Z,57.79
2022-11-04T17:41:03.426Z,57.88
2022-11-04T17:43:48.947Z,58.20
2022-11-04T17:46:34.527Z,58.45
2022-11-04T17:49:03.031Z,58.67
2022-11-04T17:51:31.520Z,58.54
2022-11-04T17:53:58.191Z,58.68
2022-11-04T17:56:25.768Z,58.37
2022-11-04T17:58:53.541Z,58.17
2022-11-04T18:01:23.217Z,58.39
2022-11-04T18:03:52.354Z,58.73
2022-11-04T18:06:20.677Z,58.87
2022-11-04T18:08:47.654Z,58.40
2022-11-04T18:11:35.496Z,58.29
2022-11-04T18:14:02.086Z,58.37
2022-11-04T18:16:28.694Z,58.23
2022-11-04T18:18:58.256Z,58.09
2022-11-04T18:21:25.430Z,58.30
2022-11-04T18:23:52.167Z,58.09
2022-11-04T18:26:19.105Z,58.10
2022-11-04T18:28:45.859Z,57.89
2022-11-04T18:31:19.911Z,57.83
2022-11-04T18:33:46.683Z,58.07
2022-11-04T18:36:13.525Z,58.48
2022-11-04T18:38:40.069Z,58.27
2022-11-04T18:41:06.761Z,58.26
2022-11-04T18:43:33.367Z,58.07
2022-11-04T18:46:07.270Z,58.32
2022-11-04T18:48:33.890Z,58.40
2022-11-04T18:51:01.488Z,58.24
2022-11-04T18:53:28.098Z,58.20
2022-11-04T18:55:54.671Z,57.92
2022-11-04T18:58:21.278Z,58.25
2022-11-04T19:00:48.077Z,58.15
2022-11-04T19:03:14.801Z,58.19
2022-11-04T19:05:42.190Z,58.29
2022-11-04T19:08:09.352Z,58.22
2022-11-04T19:10:51.678Z,58.21
2022-11-04T19:13:24.703Z,58.09
2022-11-04T19:15:51.251Z,58.38
2022-11-04T19:18:20.729Z,58.17
2022-11-04T19:20:47.353Z,58.13
2022-11-04T19:23:14.020Z,57.89
2022-11-04T19:25:42.048Z,58.31
2022-11-04T19:28:33.150Z,58.08
2022-11-04T19:31:02.598Z,58.14
2022-11-04T19:33:30.177Z,58.49
2022-11-04T19:35:58.798Z,58.57
2022-11-04T19:38:26.615Z,58.25
2022-11-04T19:40:54.526Z,58.49
2022-11-04T19:43:22.575Z,58.37
2022-11-04T19:45:50.365Z,58.50
2022-11-04T19:48:18.774Z,58.47
2022-11-04T19:50:48.943Z,58.30
2022-11-04T19:53:16.965Z,58.75
2022-11-04T19:55:52.835Z,58.50
2022-11-04T19:58:19.986Z,58.70
2022-11-04T20:00:47.317Z,58.99
2022-11-04T20:03:14.753Z,59.12
2022-11-04T20:05:43.529Z,58.94
2022-11-04T20:08:10.349Z,59.21
2022-11-04T20:10:40.278Z,59.08
2022-11-04T20:13:30.123Z,59.19
2022-11-04T20:15:56.863Z,59.33
2022-11-04T20:18:23.660Z,59.51
2022-11-04T20:20:50.197Z,59.78
2022-11-04T20:23:16.810Z,59.66
2022-11-04T20:25:43.411Z,59.79
2022-11-04T20:28:28.654Z,60.03
2022-11-04T20:30:55.211Z,60.18
2022-11-04T20:33:21.766Z,60.09
2022-11-04T20:35:48.272Z,60.13
2022-11-04T20:38:14.881Z,60.33
2022-11-04T20:40:41.596Z,60.98
2022-11-04T20:43:08.447Z,60.38
2022-11-04T20:45:35.034Z,60.85
2022-11-04T20:48:01.639Z,60.67
2022-11-04T20:50:28.262Z,60.89
2022-11-04T20:52:54.935Z,60.83
2022-11-04T20:55:21.708Z,60.70
2022-11-04T20:57:48.365Z,60.16
2022-11-04T21:00:15.230Z,60.31
2022-11-04T21:02:41.881Z,60.26
2022-11-04T21:05:08.842Z,60.49
2022-11-04T21:07:36.943Z,60.51
2022-11-04T21:10:03.813Z,60.29
2022-11-04T21:12:30.463Z,60.29
2022-11-04T21:14:57.128Z,60.52
2022-11-04T21:17:23.749Z,60.47
2022-11-04T21:19:50.397Z,60.68
2022-11-04T21:22:17.013Z,60.76
2022-11-04T21:24:43.805Z,60.64
2022-11-04T21:27:10.633Z,60.73
2022-11-04T21:29:37.422Z,60.69
2022-11-04T21:32:04.210Z,60.47
2022-11-04T21:34:31.145Z,60.57
2022-11-04T21:36:57.855Z,60.92
2022-11-04T21:39:24.365Z,60.80
2022-11-04T21:41:50.989Z,60.77
2022-11-04T21:44:17.588Z,60.84
2022-11-04T21:46:44.267Z,60.38
2022-11-04T21:49:12.396Z,60.76
2022-11-04T21:51:38.959Z,60.74
2022-11-04T21:54:07.021Z,60.73
2022-11-04T21:56:34.794Z,60.71
2022-11-04T21:59:02.411Z,61.16
2022-11-04T22:01:30.716Z,61.35
2022-11-04T22:04:00.163Z,61.11
2022-11-04T22:06:34.606Z,61.35
2022-11-04T22:09:04.658Z,61.52
2022-11-04T22:11:37.236Z,61.47
2022-11-04T22:14:06.448Z,61.44
2022-11-04T22:16:35.290Z,61.81
2022-11-04T22:19:04.129Z,61.44
2022-11-04T22:21:31.707Z,61.69
2022-11-04T22:23:59.232Z,61.71
2022-11-04T22:26:31.381Z,61.76
2022-11-04T22:28:58.654Z,61.74
2022-11-04T22:31:28.171Z,61.98
2022-11-04T22:33:55.209Z,62.10
2022-11-04T22:36:23.253Z,62.36
2022-11-04T22:38:50.686Z,62.19
2022-11-04T22:41:23.037Z,62.20
2022-11-04T22:43:49.696Z,62.21
2022-11-04T22:46:22.398Z,62.14
2022-11-04T22:48:49.213Z,62.29
2022-11-04T22:51:16.375Z,62.42
2022-11-04T22:53:43.539Z,62.26
2022-11-04T22:56:13.224Z,62.30
2022-11-04T22:58:40.672Z,62.23
2022-11-04T23:01:10.259Z,62.30
2022-11-04T23:03:37.559Z,62.52
2022-11-04T23:06:05.551Z,62.48
2022-11-04T23:08:33.831Z,62.80
2022-11-04T23:11:28.373Z,62.62
2022-11-04T23:14:20.395Z,62.82
2022-11-04T23:17:08.674Z,62.87
2022-11-04T23:19:38.853Z,62.97
2022-11-04T23:22:24.877Z,62.92
2022-11-04T23:25:07.039Z,62.96
2022-11-04T23:27:53.689Z,63.12
2022-11-04T23:30:27.117Z,63.06
2022-11-04T23:33:01.998Z,62.81
2022-11-04T23:35:50.538Z,62.56
2022-11-04T23:38:18.153Z,62.78
2022-11-04T23:41:05.106Z,63.10
2022-11-04T23:43:31.911Z,63.07
2022-11-04T23:46:17.093Z,63.27
2022-11-04T23:49:02.320Z,63.09
2022-11-04T23:51:47.739Z,63.08
2022-11-04T23:54:32.785Z,62.80
2022-11-04T23:57:18.235Z,62.95
